sensor_id;sensor_type;location;lat;lon;timestamp;P1;durP1;ratioP1;P2;durP2;ratioP2
69386;SDS011;56575;48.942;8.404;2023-02-21T00:00:52;7.50;;;2.55;;
69386;SDS011;56575;48.942;8.404;2023-02-21T00:03:36;5.10;;;2.20;;
69386;SDS011;56575;48.942;8.404;2023-02-21T00:06:19;4.57;;;2.35;;
69386;SDS011;56575;48.942;8.404;2023-02-21T00:09:03;6.47;;;2.30;;
69386;SDS011;56575;48.942;8.404;2023-02-21T00:11:47;6.72;;;2.70;;
69386;SDS011;56575;48.942;8.404;2023-02-21T00:14:31;5.97;;;2.03;;
69386;SDS011;56575;48.942;8.404;2023-02-21T00:17:15;6.55;;;2.03;;
69386;SDS011;56575;48.942;8.404;2023-02-21T00:19:59;4.80;;;2.20;;
69386;SDS011;56575;48.942;8.404;2023-02-21T00:22:43;7.47;;;2.37;;
69386;SDS011;56575;48.942;8.404;2023-02-21T00:25:27;6.40;;;2.10;;
69386;SDS011;56575;48.942;8.404;2023-02-21T00:28:11;5.95;;;2.30;;
69386;SDS011;56575;48.942;8.404;2023-02-21T00:30:55;8.85;;;3.40;;
69386;SDS011;56575;48.942;8.404;2023-02-21T00:33:39;4.43;;;2.17;;
69386;SDS011;56575;48.942;8.404;2023-02-21T00:36:23;5.40;;;1.97;;
69386;SDS011;56575;48.942;8.404;2023-02-21T00:39:07;5.13;;;2.38;;
69386;SDS011;56575;48.942;8.404;2023-02-21T00:41:51;5.25;;;2.50;;
69386;SDS011;56575;48.942;8.404;2023-02-21T00:44:35;5.65;;;2.30;;
69386;SDS011;56575;48.942;8.404;2023-02-21T00:47:19;6.30;;;2.40;;
69386;SDS011;56575;48.942;8.404;2023-02-21T00:50:03;6.03;;;2.23;;
69386;SDS011;56575;48.942;8.404;2023-02-21T00:52:46;7.15;;;2.40;;
69386;SDS011;56575;48.942;8.404;2023-02-21T00:55:30;5.38;;;2.60;;
69386;SDS011;56575;48.942;8.404;2023-02-21T00:58:14;5.93;;;2.60;;
69386;SDS011;56575;48.942;8.404;2023-02-21T01:00:58;6.25;;;2.38;;
69386;SDS011;56575;48.942;8.404;2023-02-21T01:03:42;5.80;;;2.50;;
69386;SDS011;56575;48.942;8.404;2023-02-21T01:06:26;5.38;;;2.17;;
69386;SDS011;56575;48.942;8.404;2023-02-21T01:09:10;6.72;;;2.40;;
69386;SDS011;56575;48.942;8.404;2023-02-21T01:11:54;6.50;;;2.50;;
69386;SDS011;56575;48.942;8.404;2023-02-21T01:14:38;7.10;;;2.60;;
69386;SDS011;56575;48.942;8.404;2023-02-21T01:17:22;5.70;;;2.47;;
69386;SDS011;56575;48.942;8.404;2023-02-21T01:20:06;6.22;;;2.25;;
69386;SDS011;56575;48.942;8.404;2023-02-21T01:22:50;9.82;;;2.70;;
69386;SDS011;56575;48.942;8.404;2023-02-21T01:25:34;5.65;;;2.60;;
69386;SDS011;56575;48.942;8.404;2023-02-21T01:28:18;5.30;;;2.15;;
69386;SDS011;56575;48.942;8.404;2023-02-21T01:31:02;4.47;;;2.33;;
69386;SDS011;56575;48.942;8.404;2023-02-21T01:33:46;7.03;;;2.30;;
69386;SDS011;56575;48.942;8.404;2023-02-21T01:36:30;8.38;;;2.45;;
69386;SDS011;56575;48.942;8.404;2023-02-21T01:39:14;5.05;;;2.30;;
69386;SDS011;56575;48.942;8.404;2023-02-21T01:41:58;6.05;;;2.15;;
69386;SDS011;56575;48.942;8.404;2023-02-21T01:44:43;5.53;;;2.70;;
69386;SDS011;56575;48.942;8.404;2023-02-21T01:47:27;6.60;;;2.30;;
69386;SDS011;56575;48.942;8.404;2023-02-21T01:52:58;5.88;;;2.95;;
69386;SDS011;56575;48.942;8.404;2023-02-21T01:55:43;6.40;;;2.47;;
69386;SDS011;56575;48.942;8.404;2023-02-21T01:58:27;6.83;;;2.23;;
69386;SDS011;56575;48.942;8.404;2023-02-21T02:01:12;5.63;;;2.08;;
69386;SDS011;56575;48.942;8.404;2023-02-21T02:03:59;6.85;;;2.08;;
69386;SDS011;56575;48.942;8.404;2023-02-21T02:06:43;5.93;;;2.20;;
69386;SDS011;56575;48.942;8.404;2023-02-21T02:09:27;6.00;;;2.30;;
69386;SDS011;56575;48.942;8.404;2023-02-21T02:20:01;4.85;;;2.33;;
69386;SDS011;56575;48.942;8.404;2023-02-21T02:30:05;3.70;;;1.90;;
69386;SDS011;56575;48.942;8.404;2023-02-21T02:35:18;3.80;;;2.00;;
69386;SDS011;56575;48.942;8.404;2023-02-21T02:37:48;5.03;;;2.15;;
69386;SDS011;56575;48.942;8.404;2023-02-21T02:40:31;9.23;;;2.58;;
69386;SDS011;56575;48.942;8.404;2023-02-21T02:45:43;6.43;;;2.25;;
69386;SDS011;56575;48.942;8.404;2023-02-21T02:50:35;6.67;;;2.50;;
69386;SDS011;56575;48.942;8.404;2023-02-21T02:53:02;4.38;;;2.00;;
69386;SDS011;56575;48.942;8.404;2023-02-21T02:57:56;4.43;;;2.30;;
69386;SDS011;56575;48.942;8.404;2023-02-21T03:00:21;7.17;;;2.20;;
69386;SDS011;56575;48.942;8.404;2023-02-21T03:08:44;6.65;;;2.20;;
69386;SDS011;56575;48.942;8.404;2023-02-21T03:10:46;5.03;;;2.10;;
69386;SDS011;56575;48.942;8.404;2023-02-21T03:13:23;5.07;;;2.30;;
69386;SDS011;56575;48.942;8.404;2023-02-21T03:15:54;5.90;;;2.20;;
69386;SDS011;56575;48.942;8.404;2023-02-21T03:18:23;4.33;;;2.13;;
69386;SDS011;56575;48.942;8.404;2023-02-21T03:20:52;4.70;;;2.30;;
69386;SDS011;56575;48.942;8.404;2023-02-21T03:23:18;6.20;;;2.10;;
69386;SDS011;56575;48.942;8.404;2023-02-21T03:25:46;7.05;;;2.30;;
69386;SDS011;56575;48.942;8.404;2023-02-21T03:28:12;7.07;;;2.40;;
69386;SDS011;56575;48.942;8.404;2023-02-21T03:30:38;4.67;;;2.20;;
69386;SDS011;56575;48.942;8.404;2023-02-21T03:33:05;5.20;;;2.25;;
69386;SDS011;56575;48.942;8.404;2023-02-21T03:35:30;6.70;;;2.70;;
69386;SDS011;56575;48.942;8.404;2023-02-21T03:37:56;6.53;;;2.30;;
69386;SDS011;56575;48.942;8.404;2023-02-21T03:40:29;4.40;;;2.20;;
69386;SDS011;56575;48.942;8.404;2023-02-21T03:42:54;4.90;;;1.97;;
69386;SDS011;56575;48.942;8.404;2023-02-21T03:45:20;7.00;;;2.22;;
69386;SDS011;56575;48.942;8.404;2023-02-21T03:47:46;5.00;;;1.85;;
69386;SDS011;56575;48.942;8.404;2023-02-21T03:50:11;7.40;;;2.37;;
69386;SDS011;56575;48.942;8.404;2023-02-21T03:52:36;4.43;;;2.07;;
69386;SDS011;56575;48.942;8.404;2023-02-21T03:55:02;6.60;;;2.70;;
69386;SDS011;56575;48.942;8.404;2023-02-21T03:57:27;5.93;;;1.87;;
69386;SDS011;56575;48.942;8.404;2023-02-21T03:59:52;6.10;;;2.13;;
69386;SDS011;56575;48.942;8.404;2023-02-21T04:02:18;4.87;;;2.00;;
69386;SDS011;56575;48.942;8.404;2023-02-21T04:04:43;5.63;;;2.17;;
69386;SDS011;56575;48.942;8.404;2023-02-21T04:07:09;5.07;;;2.27;;
69386;SDS011;56575;48.942;8.404;2023-02-21T04:09:35;5.22;;;2.25;;
69386;SDS011;56575;48.942;8.404;2023-02-21T04:12:00;5.17;;;2.33;;
69386;SDS011;56575;48.942;8.404;2023-02-21T04:14:25;6.40;;;2.17;;
69386;SDS011;56575;48.942;8.404;2023-02-21T04:16:50;6.03;;;2.33;;
69386;SDS011;56575;48.942;8.404;2023-02-21T04:19:15;6.00;;;2.60;;
69386;SDS011;56575;48.942;8.404;2023-02-21T04:21:41;4.87;;;2.13;;
69386;SDS011;56575;48.942;8.404;2023-02-21T04:24:06;5.43;;;2.13;;
69386;SDS011;56575;48.942;8.404;2023-02-21T04:26:31;5.20;;;2.20;;
69386;SDS011;56575;48.942;8.404;2023-02-21T04:28:58;5.75;;;2.25;;
69386;SDS011;56575;48.942;8.404;2023-02-21T04:31:24;6.10;;;2.20;;
69386;SDS011;56575;48.942;8.404;2023-02-21T04:33:49;4.97;;;2.33;;
69386;SDS011;56575;48.942;8.404;2023-02-21T04:36:14;4.77;;;2.93;;
69386;SDS011;56575;48.942;8.404;2023-02-21T04:38:40;5.70;;;2.37;;
69386;SDS011;56575;48.942;8.404;2023-02-21T04:41:05;4.80;;;2.30;;
69386;SDS011;56575;48.942;8.404;2023-02-21T04:43:30;6.50;;;2.60;;
69386;SDS011;56575;48.942;8.404;2023-02-21T04:45:56;6.43;;;2.67;;
69386;SDS011;56575;48.942;8.404;2023-02-21T04:48:21;6.27;;;1.87;;
69386;SDS011;56575;48.942;8.404;2023-02-21T04:50:46;5.00;;;2.13;;
69386;SDS011;56575;48.942;8.404;2023-02-21T04:53:12;6.10;;;2.20;;
69386;SDS011;56575;48.942;8.404;2023-02-21T04:55:37;4.40;;;2.20;;
69386;SDS011;56575;48.942;8.404;2023-02-21T04:58:02;6.60;;;2.47;;
69386;SDS011;56575;48.942;8.404;2023-02-21T05:00:28;5.30;;;2.05;;
69386;SDS011;56575;48.942;8.404;2023-02-21T05:02:53;4.93;;;2.23;;
69386;SDS011;56575;48.942;8.404;2023-02-21T05:05:18;4.73;;;2.30;;
69386;SDS011;56575;48.942;8.404;2023-02-21T05:07:43;6.47;;;2.20;;
69386;SDS011;56575;48.942;8.404;2023-02-21T05:10:09;4.87;;;2.23;;
69386;SDS011;56575;48.942;8.404;2023-02-21T05:12:34;4.88;;;2.40;;
69386;SDS011;56575;48.942;8.404;2023-02-21T05:15:01;7.03;;;2.53;;
69386;SDS011;56575;48.942;8.404;2023-02-21T05:17:26;4.67;;;2.10;;
69386;SDS011;56575;48.942;8.404;2023-02-21T05:19:52;6.57;;;2.40;;
69386;SDS011;56575;48.942;8.404;2023-02-21T05:22:19;4.65;;;2.22;;
69386;SDS011;56575;48.942;8.404;2023-02-21T05:24:44;4.47;;;2.33;;
69386;SDS011;56575;48.942;8.404;2023-02-21T05:27:11;7.57;;;2.90;;
69386;SDS011;56575;48.942;8.404;2023-02-21T05:29:39;6.85;;;2.45;;
69386;SDS011;56575;48.942;8.404;2023-02-21T05:32:05;4.73;;;2.20;;
69386;SDS011;56575;48.942;8.404;2023-02-21T05:34:30;6.60;;;3.07;;
69386;SDS011;56575;48.942;8.404;2023-02-21T05:36:55;5.37;;;2.50;;
69386;SDS011;56575;48.942;8.404;2023-02-21T05:39:20;6.80;;;2.70;;
69386;SDS011;56575;48.942;8.404;2023-02-21T05:41:49;5.67;;;2.60;;
69386;SDS011;56575;48.942;8.404;2023-02-21T05:44:14;7.70;;;2.45;;
69386;SDS011;56575;48.942;8.404;2023-02-21T05:46:40;4.67;;;2.40;;
69386;SDS011;56575;48.942;8.404;2023-02-21T05:49:05;6.18;;;2.70;;
69386;SDS011;56575;48.942;8.404;2023-02-21T05:51:35;6.90;;;2.57;;
69386;SDS011;56575;48.942;8.404;2023-02-21T05:54:00;6.00;;;2.30;;
69386;SDS011;56575;48.942;8.404;2023-02-21T05:56:26;5.80;;;2.20;;
69386;SDS011;56575;48.942;8.404;2023-02-21T05:58:51;6.03;;;2.30;;
69386;SDS011;56575;48.942;8.404;2023-02-21T06:01:16;6.90;;;2.63;;
69386;SDS011;56575;48.942;8.404;2023-02-21T06:03:41;8.67;;;2.60;;
69386;SDS011;56575;48.942;8.404;2023-02-21T06:06:07;6.30;;;2.60;;
69386;SDS011;56575;48.942;8.404;2023-02-21T06:08:40;7.03;;;3.50;;
69386;SDS011;56575;48.942;8.404;2023-02-21T06:11:05;7.75;;;3.50;;
69386;SDS011;56575;48.942;8.404;2023-02-21T06:13:31;6.50;;;3.80;;
69386;SDS011;56575;48.942;8.404;2023-02-21T06:15:56;6.67;;;2.90;;
69386;SDS011;56575;48.942;8.404;2023-02-21T06:18:21;5.03;;;2.40;;
69386;SDS011;56575;48.942;8.404;2023-02-21T06:20:46;7.37;;;2.47;;
69386;SDS011;56575;48.942;8.404;2023-02-21T06:23:11;8.10;;;2.70;;
69386;SDS011;56575;48.942;8.404;2023-02-21T06:25:37;6.67;;;2.30;;
69386;SDS011;56575;48.942;8.404;2023-02-21T06:28:02;7.90;;;2.30;;
69386;SDS011;56575;48.942;8.404;2023-02-21T06:30:27;3.87;;;2.33;;
69386;SDS011;56575;48.942;8.404;2023-02-21T06:32:53;5.83;;;2.70;;
69386;SDS011;56575;48.942;8.404;2023-02-21T06:35:18;7.93;;;3.03;;
69386;SDS011;56575;48.942;8.404;2023-02-21T06:37:43;5.10;;;2.30;;
69386;SDS011;56575;48.942;8.404;2023-02-21T06:40:08;8.27;;;3.03;;
69386;SDS011;56575;48.942;8.404;2023-02-21T06:42:34;9.53;;;2.43;;
69386;SDS011;56575;48.942;8.404;2023-02-21T06:45:01;6.90;;;2.80;;
69386;SDS011;56575;48.942;8.404;2023-02-21T06:47:26;6.93;;;3.07;;
69386;SDS011;56575;48.942;8.404;2023-02-21T06:49:51;6.87;;;3.20;;
69386;SDS011;56575;48.942;8.404;2023-02-21T06:52:16;7.33;;;2.90;;
69386;SDS011;56575;48.942;8.404;2023-02-21T06:54:41;5.63;;;2.70;;
69386;SDS011;56575;48.942;8.404;2023-02-21T06:57:07;6.77;;;2.83;;
69386;SDS011;56575;48.942;8.404;2023-02-21T06:59:32;10.13;;;3.53;;
69386;SDS011;56575;48.942;8.404;2023-02-21T07:01:57;8.97;;;2.90;;
69386;SDS011;56575;48.942;8.404;2023-02-21T07:04:23;10.03;;;3.27;;
69386;SDS011;56575;48.942;8.404;2023-02-21T07:06:48;8.13;;;2.63;;
69386;SDS011;56575;48.942;8.404;2023-02-21T07:09:13;4.77;;;2.30;;
69386;SDS011;56575;48.942;8.404;2023-02-21T07:11:38;6.07;;;2.40;;
69386;SDS011;56575;48.942;8.404;2023-02-21T07:14:04;6.80;;;2.43;;
69386;SDS011;56575;48.942;8.404;2023-02-21T07:16:29;5.73;;;2.87;;
69386;SDS011;56575;48.942;8.404;2023-02-21T07:18:54;4.57;;;2.57;;
69386;SDS011;56575;48.942;8.404;2023-02-21T07:21:20;7.53;;;3.77;;
69386;SDS011;56575;48.942;8.404;2023-02-21T07:23:45;7.23;;;4.13;;
69386;SDS011;56575;48.942;8.404;2023-02-21T07:26:11;7.05;;;3.53;;
69386;SDS011;56575;48.942;8.404;2023-02-21T07:28:36;7.13;;;3.00;;
69386;SDS011;56575;48.942;8.404;2023-02-21T07:31:02;8.43;;;3.80;;
69386;SDS011;56575;48.942;8.404;2023-02-21T07:33:27;7.20;;;3.20;;
69386;SDS011;56575;48.942;8.404;2023-02-21T07:35:52;7.07;;;2.90;;
69386;SDS011;56575;48.942;8.404;2023-02-21T07:38:18;13.97;;;4.53;;
69386;SDS011;56575;48.942;8.404;2023-02-21T07:40:44;10.85;;;5.10;;
69386;SDS011;56575;48.942;8.404;2023-02-21T07:43:09;11.10;;;4.77;;
69386;SDS011;56575;48.942;8.404;2023-02-21T07:45:34;7.60;;;3.93;;
69386;SDS011;56575;48.942;8.404;2023-02-21T07:48:00;7.20;;;3.20;;
69386;SDS011;56575;48.942;8.404;2023-02-21T07:50:25;7.47;;;3.40;;
69386;SDS011;56575;48.942;8.404;2023-02-21T07:52:50;9.63;;;3.10;;
69386;SDS011;56575;48.942;8.404;2023-02-21T07:55:15;6.33;;;2.70;;
69386;SDS011;56575;48.942;8.404;2023-02-21T07:57:40;4.63;;;2.50;;
69386;SDS011;56575;48.942;8.404;2023-02-21T08:00:06;5.97;;;2.73;;
69386;SDS011;56575;48.942;8.404;2023-02-21T08:02:31;6.78;;;2.60;;
69386;SDS011;56575;48.942;8.404;2023-02-21T08:04:56;5.93;;;2.93;;
69386;SDS011;56575;48.942;8.404;2023-02-21T08:07:22;8.00;;;3.10;;
69386;SDS011;56575;48.942;8.404;2023-02-21T08:09:47;5.93;;;2.80;;
69386;SDS011;56575;48.942;8.404;2023-02-21T08:12:12;4.70;;;2.80;;
69386;SDS011;56575;48.942;8.404;2023-02-21T08:14:37;5.97;;;2.60;;
69386;SDS011;56575;48.942;8.404;2023-02-21T08:17:03;5.90;;;2.80;;
69386;SDS011;56575;48.942;8.404;2023-02-21T08:19:28;7.97;;;3.10;;
69386;SDS011;56575;48.942;8.404;2023-02-21T08:21:53;7.07;;;3.20;;
69386;SDS011;56575;48.942;8.404;2023-02-21T08:24:18;6.17;;;3.27;;
69386;SDS011;56575;48.942;8.404;2023-02-21T08:26:44;6.33;;;3.00;;
69386;SDS011;56575;48.942;8.404;2023-02-21T08:29:12;7.05;;;2.88;;
69386;SDS011;56575;48.942;8.404;2023-02-21T08:31:38;7.13;;;2.70;;
69386;SDS011;56575;48.942;8.404;2023-02-21T08:34:04;6.57;;;2.90;;
69386;SDS011;56575;48.942;8.404;2023-02-21T08:36:30;6.28;;;3.00;;
69386;SDS011;56575;48.942;8.404;2023-02-21T08:38:56;9.40;;;3.28;;
69386;SDS011;56575;48.942;8.404;2023-02-21T08:41:21;6.30;;;3.10;;
69386;SDS011;56575;48.942;8.404;2023-02-21T08:43:46;8.37;;;3.50;;
69386;SDS011;56575;48.942;8.404;2023-02-21T08:46:13;6.63;;;3.03;;
69386;SDS011;56575;48.942;8.404;2023-02-21T08:48:38;5.63;;;3.10;;
69386;SDS011;56575;48.942;8.404;2023-02-21T08:51:04;8.63;;;3.13;;
69386;SDS011;56575;48.942;8.404;2023-02-21T08:53:29;6.83;;;3.63;;
69386;SDS011;56575;48.942;8.404;2023-02-21T08:55:54;5.60;;;3.20;;
69386;SDS011;56575;48.942;8.404;2023-02-21T08:58:19;8.87;;;3.50;;
69386;SDS011;56575;48.942;8.404;2023-02-21T09:00:45;7.23;;;3.47;;
69386;SDS011;56575;48.942;8.404;2023-02-21T09:03:10;6.93;;;3.23;;
69386;SDS011;56575;48.942;8.404;2023-02-21T09:05:35;7.00;;;3.70;;
69386;SDS011;56575;48.942;8.404;2023-02-21T09:08:00;7.50;;;3.27;;
69386;SDS011;56575;48.942;8.404;2023-02-21T09:10:26;5.87;;;3.00;;
69386;SDS011;56575;48.942;8.404;2023-02-21T09:12:52;7.25;;;3.00;;
69386;SDS011;56575;48.942;8.404;2023-02-21T09:15:17;8.53;;;3.97;;
69386;SDS011;56575;48.942;8.404;2023-02-21T09:17:43;11.37;;;4.23;;
69386;SDS011;56575;48.942;8.404;2023-02-21T09:20:08;9.33;;;4.63;;
69386;SDS011;56575;48.942;8.404;2023-02-21T09:22:34;10.07;;;4.73;;
69386;SDS011;56575;48.942;8.404;2023-02-21T09:25:00;9.27;;;4.43;;
69386;SDS011;56575;48.942;8.404;2023-02-21T09:27:25;10.57;;;5.37;;
69386;SDS011;56575;48.942;8.404;2023-02-21T09:30:04;9.00;;;4.68;;
69386;SDS011;56575;48.942;8.404;2023-02-21T09:32:31;9.30;;;4.90;;
69386;SDS011;56575;48.942;8.404;2023-02-21T09:34:56;7.93;;;4.70;;
69386;SDS011;56575;48.942;8.404;2023-02-21T09:37:21;8.67;;;4.77;;
69386;SDS011;56575;48.942;8.404;2023-02-21T09:39:47;9.50;;;4.83;;
69386;SDS011;56575;48.942;8.404;2023-02-21T09:42:14;8.20;;;4.67;;
69386;SDS011;56575;48.942;8.404;2023-02-21T09:44:40;9.05;;;5.10;;
69386;SDS011;56575;48.942;8.404;2023-02-21T09:47:06;9.38;;;4.88;;
69386;SDS011;56575;48.942;8.404;2023-02-21T09:49:38;8.87;;;4.57;;
69386;SDS011;56575;48.942;8.404;2023-02-21T09:52:04;8.55;;;4.50;;
69386;SDS011;56575;48.942;8.404;2023-02-21T09:56:55;8.73;;;4.50;;
69386;SDS011;56575;48.942;8.404;2023-02-21T09:59:21;11.80;;;5.47;;
69386;SDS011;56575;48.942;8.404;2023-02-21T10:06:57;8.55;;;4.70;;
69386;SDS011;56575;48.942;8.404;2023-02-21T10:12:02;11.57;;;4.73;;
69386;SDS011;56575;48.942;8.404;2023-02-21T10:17:24;10.77;;;4.80;;
69386;SDS011;56575;48.942;8.404;2023-02-21T10:19:54;12.80;;;4.77;;
69386;SDS011;56575;48.942;8.404;2023-02-21T10:22:26;9.50;;;4.63;;
69386;SDS011;56575;48.942;8.404;2023-02-21T10:24:52;8.10;;;4.72;;
69386;SDS011;56575;48.942;8.404;2023-02-21T10:27:19;9.70;;;4.93;;
69386;SDS011;56575;48.942;8.404;2023-02-21T10:32:18;8.48;;;4.85;;
69386;SDS011;56575;48.942;8.404;2023-02-21T10:34:44;8.47;;;4.37;;
69386;SDS011;56575;48.942;8.404;2023-02-21T10:39:55;9.07;;;4.07;;
69386;SDS011;56575;48.942;8.404;2023-02-21T10:42:31;7.38;;;3.55;;
69386;SDS011;56575;48.942;8.404;2023-02-21T10:44:58;10.10;;;3.83;;
69386;SDS011;56575;48.942;8.404;2023-02-21T10:50:08;10.30;;;4.10;;
69386;SDS011;56575;48.942;8.404;2023-02-21T10:52:36;8.13;;;3.58;;
69386;SDS011;56575;48.942;8.404;2023-02-21T10:55:03;10.05;;;3.83;;
69386;SDS011;56575;48.942;8.404;2023-02-21T10:57:32;7.33;;;3.40;;
69386;SDS011;56575;48.942;8.404;2023-02-21T10:59:57;9.60;;;4.00;;
69386;SDS011;56575;48.942;8.404;2023-02-21T11:02:25;8.32;;;3.35;;
69386;SDS011;56575;48.942;8.404;2023-02-21T11:04:52;7.57;;;3.33;;
69386;SDS011;56575;48.942;8.404;2023-02-21T11:07:18;5.30;;;3.23;;
69386;SDS011;56575;48.942;8.404;2023-02-21T11:09:46;8.97;;;3.50;;
69386;SDS011;56575;48.942;8.404;2023-02-21T11:14:40;8.25;;;3.65;;
69386;SDS011;56575;48.942;8.404;2023-02-21T11:17:14;7.18;;;3.80;;
69386;SDS011;56575;48.942;8.404;2023-02-21T11:19:46;7.03;;;3.63;;
69386;SDS011;56575;48.942;8.404;2023-02-21T11:22:12;6.20;;;3.53;;
69386;SDS011;56575;48.942;8.404;2023-02-21T11:27:22;8.03;;;3.57;;
69386;SDS011;56575;48.942;8.404;2023-02-21T11:29:48;6.20;;;3.90;;
69386;SDS011;56575;48.942;8.404;2023-02-21T11:32:24;6.43;;;3.63;;
69386;SDS011;56575;48.942;8.404;2023-02-21T11:34:49;5.95;;;3.60;;
69386;SDS011;56575;48.942;8.404;2023-02-21T11:37:15;6.40;;;3.90;;
69386;SDS011;56575;48.942;8.404;2023-02-21T11:39:40;7.17;;;4.00;;
69386;SDS011;56575;48.942;8.404;2023-02-21T11:45:02;7.03;;;3.75;;
69386;SDS011;56575;48.942;8.404;2023-02-21T11:47:31;5.95;;;4.00;;
69386;SDS011;56575;48.942;8.404;2023-02-21T11:50:14;7.40;;;3.80;;
69386;SDS011;56575;48.942;8.404;2023-02-21T11:52:44;6.95;;;4.30;;
69386;SDS011;56575;48.942;8.404;2023-02-21T11:55:20;6.90;;;3.93;;
69386;SDS011;56575;48.942;8.404;2023-02-21T12:00:25;7.25;;;3.95;;
69386;SDS011;56575;48.942;8.404;2023-02-21T12:10:43;7.43;;;3.80;;
69386;SDS011;56575;48.942;8.404;2023-02-21T12:13:20;6.50;;;3.70;;
69386;SDS011;56575;48.942;8.404;2023-02-21T12:26:24;5.97;;;3.45;;
69386;SDS011;56575;48.942;8.404;2023-02-21T12:41:37;7.15;;;3.13;;
69386;SDS011;56575;48.942;8.404;2023-02-21T12:46:41;4.30;;;3.10;;
69386;SDS011;56575;48.942;8.404;2023-02-21T12:52:11;5.47;;;3.07;;
69386;SDS011;56575;48.942;8.404;2023-02-21T12:54:43;5.15;;;3.20;;
69386;SDS011;56575;48.942;8.404;2023-02-21T12:57:10;5.97;;;3.15;;
69386;SDS011;56575;48.942;8.404;2023-02-21T12:59:59;5.93;;;2.92;;
69386;SDS011;56575;48.942;8.404;2023-02-21T13:02:41;4.18;;;3.00;;
69386;SDS011;56575;48.942;8.404;2023-02-21T13:05:10;4.50;;;2.70;;
69386;SDS011;56575;48.942;8.404;2023-02-21T13:07:40;3.55;;;2.85;;
69386;SDS011;56575;48.942;8.404;2023-02-21T13:12:42;4.65;;;2.90;;
69386;SDS011;56575;48.942;8.404;2023-02-21T13:17:38;6.33;;;2.80;;
69386;SDS011;56575;48.942;8.404;2023-02-21T13:20:08;4.55;;;2.75;;
69386;SDS011;56575;48.942;8.404;2023-02-21T13:25:43;5.65;;;2.70;;
69386;SDS011;56575;48.942;8.404;2023-02-21T13:28:19;6.07;;;2.70;;
69386;SDS011;56575;48.942;8.404;2023-02-21T13:30:49;4.63;;;2.33;;
69386;SDS011;56575;48.942;8.404;2023-02-21T13:33:35;4.45;;;2.40;;
69386;SDS011;56575;48.942;8.404;2023-02-21T13:41:37;4.10;;;2.20;;
69386;SDS011;56575;48.942;8.404;2023-02-21T13:44:08;8.90;;;2.13;;
69386;SDS011;56575;48.942;8.404;2023-02-21T13:51:47;4.38;;;2.10;;
69386;SDS011;56575;48.942;8.404;2023-02-21T13:54:13;3.10;;;2.30;;
69386;SDS011;56575;48.942;8.404;2023-02-21T13:56:45;4.90;;;2.15;;
69386;SDS011;56575;48.942;8.404;2023-02-21T13:59:29;4.23;;;1.93;;
69386;SDS011;56575;48.942;8.404;2023-02-21T14:02:19;3.17;;;1.70;;
69386;SDS011;56575;48.942;8.404;2023-02-21T14:04:52;4.55;;;2.05;;
69386;SDS011;56575;48.942;8.404;2023-02-21T14:07:55;4.65;;;2.05;;
69386;SDS011;56575;48.942;8.404;2023-02-21T14:10:19;4.13;;;2.00;;
69386;SDS011;56575;48.942;8.404;2023-02-21T14:12:50;3.43;;;1.80;;
69386;SDS011;56575;48.942;8.404;2023-02-21T14:15:15;5.43;;;2.35;;
69386;SDS011;56575;48.942;8.404;2023-02-21T14:17:41;4.80;;;1.92;;
69386;SDS011;56575;48.942;8.404;2023-02-21T14:20:14;6.75;;;3.15;;
69386;SDS011;56575;48.942;8.404;2023-02-21T14:22:40;4.32;;;2.17;;
69386;SDS011;56575;48.942;8.404;2023-02-21T14:25:15;3.70;;;2.30;;
69386;SDS011;56575;48.942;8.404;2023-02-21T14:27:41;4.33;;;2.00;;
69386;SDS011;56575;48.942;8.404;2023-02-21T14:32:35;3.93;;;2.10;;
69386;SDS011;56575;48.942;8.404;2023-02-21T14:37:58;4.00;;;2.05;;
69386;SDS011;56575;48.942;8.404;2023-02-21T14:50:45;4.40;;;1.52;;
69386;SDS011;56575;48.942;8.404;2023-02-21T14:55:55;2.55;;;1.30;;
69386;SDS011;56575;48.942;8.404;2023-02-21T15:01:27;2.83;;;1.40;;
69386;SDS011;56575;48.942;8.404;2023-02-21T15:06:22;3.27;;;2.23;;
69386;SDS011;56575;48.942;8.404;2023-02-21T15:08:49;5.97;;;2.88;;
69386;SDS011;56575;48.942;8.404;2023-02-21T15:13:42;8.40;;;3.00;;
69386;SDS011;56575;48.942;8.404;2023-02-21T15:16:08;3.03;;;1.87;;
69386;SDS011;56575;48.942;8.404;2023-02-21T15:18:34;3.75;;;1.52;;
69386;SDS011;56575;48.942;8.404;2023-02-21T15:21:18;4.82;;;2.35;;
69386;SDS011;56575;48.942;8.404;2023-02-21T15:23:45;5.07;;;2.40;;
69386;SDS011;56575;48.942;8.404;2023-02-21T15:26:16;4.18;;;2.50;;
69386;SDS011;56575;48.942;8.404;2023-02-21T15:28:42;5.43;;;3.53;;
69386;SDS011;56575;48.942;8.404;2023-02-21T15:31:07;5.20;;;2.50;;
69386;SDS011;56575;48.942;8.404;2023-02-21T15:33:34;5.88;;;2.72;;
69386;SDS011;56575;48.942;8.404;2023-02-21T15:36:04;7.55;;;3.70;;
69386;SDS011;56575;48.942;8.404;2023-02-21T15:38:32;4.55;;;2.90;;
69386;SDS011;56575;48.942;8.404;2023-02-21T15:43:48;5.87;;;2.50;;
69386;SDS011;56575;48.942;8.404;2023-02-21T15:46:16;4.28;;;2.83;;
69386;SDS011;56575;48.942;8.404;2023-02-21T15:48:43;4.93;;;3.20;;
69386;SDS011;56575;48.942;8.404;2023-02-21T15:51:08;4.40;;;2.77;;
69386;SDS011;56575;48.942;8.404;2023-02-21T15:53:34;6.45;;;2.50;;
69386;SDS011;56575;48.942;8.404;2023-02-21T15:56:19;5.83;;;2.47;;
69386;SDS011;56575;48.942;8.404;2023-02-21T15:59:02;5.88;;;2.60;;
69386;SDS011;56575;48.942;8.404;2023-02-21T16:01:31;3.17;;;1.80;;
69386;SDS011;56575;48.942;8.404;2023-02-21T16:04:16;3.50;;;1.60;;
69386;SDS011;56575;48.942;8.404;2023-02-21T16:06:48;7.17;;;2.63;;
69386;SDS011;56575;48.942;8.404;2023-02-21T16:09:19;7.50;;;1.75;;
69386;SDS011;56575;48.942;8.404;2023-02-21T16:11:49;4.88;;;1.63;;
69386;SDS011;56575;48.942;8.404;2023-02-21T16:17:12;4.80;;;2.03;;
69386;SDS011;56575;48.942;8.404;2023-02-21T16:19:41;5.63;;;1.40;;
69386;SDS011;56575;48.942;8.404;2023-02-21T16:22:50;4.82;;;1.90;;
69386;SDS011;56575;48.942;8.404;2023-02-21T16:28:18;3.67;;;1.33;;
69386;SDS011;56575;48.942;8.404;2023-02-21T16:30:25;3.85;;;1.88;;
69386;SDS011;56575;48.942;8.404;2023-02-21T16:32:52;5.37;;;1.70;;
69386;SDS011;56575;48.942;8.404;2023-02-21T16:35:21;3.65;;;1.90;;
69386;SDS011;56575;48.942;8.404;2023-02-21T16:37:51;3.95;;;1.90;;
69386;SDS011;56575;48.942;8.404;2023-02-21T16:40:18;2.58;;;1.60;;
69386;SDS011;56575;48.942;8.404;2023-02-21T16:42:46;4.78;;;1.70;;
69386;SDS011;56575;48.942;8.404;2023-02-21T16:45:11;5.90;;;1.67;;
69386;SDS011;56575;48.942;8.404;2023-02-21T16:47:37;4.47;;;1.70;;
69386;SDS011;56575;48.942;8.404;2023-02-21T16:50:02;4.67;;;1.60;;
69386;SDS011;56575;48.942;8.404;2023-02-21T16:52:28;4.65;;;1.40;;
69386;SDS011;56575;48.942;8.404;2023-02-21T16:54:53;6.23;;;2.00;;
69386;SDS011;56575;48.942;8.404;2023-02-21T16:57:19;5.63;;;2.00;;
69386;SDS011;56575;48.942;8.404;2023-02-21T16:59:44;8.27;;;2.07;;
69386;SDS011;56575;48.942;8.404;2023-02-21T17:02:12;6.63;;;2.03;;
69386;SDS011;56575;48.942;8.404;2023-02-21T17:04:37;5.63;;;1.77;;
69386;SDS011;56575;48.942;8.404;2023-02-21T17:07:03;4.90;;;1.70;;
69386;SDS011;56575;48.942;8.404;2023-02-21T17:09:30;4.28;;;1.60;;
69386;SDS011;56575;48.942;8.404;2023-02-21T17:11:58;3.40;;;1.70;;
69386;SDS011;56575;48.942;8.404;2023-02-21T17:14:24;4.28;;;1.73;;
69386;SDS011;56575;48.942;8.404;2023-02-21T17:16:49;3.53;;;1.50;;
69386;SDS011;56575;48.942;8.404;2023-02-21T17:19:15;4.67;;;2.00;;
69386;SDS011;56575;48.942;8.404;2023-02-21T17:21:41;6.85;;;3.67;;
69386;SDS011;56575;48.942;8.404;2023-02-21T17:24:06;6.70;;;3.53;;
69386;SDS011;56575;48.942;8.404;2023-02-21T17:26:32;9.50;;;5.47;;
69386;SDS011;56575;48.942;8.404;2023-02-21T17:28:57;5.90;;;4.03;;
69386;SDS011;56575;48.942;8.404;2023-02-21T17:31:22;5.00;;;3.10;;
69386;SDS011;56575;48.942;8.404;2023-02-21T17:33:47;6.80;;;3.00;;
69386;SDS011;56575;48.942;8.404;2023-02-21T17:36:16;4.57;;;2.50;;
69386;SDS011;56575;48.942;8.404;2023-02-21T17:38:42;5.95;;;2.60;;